sensor_id;sensor_type;location;lat;lon;timestamp;pressure;altitude;pressure_sealevel;temperature;humidity
83100;BME280;72972;51.784;4.660;2024-01-30T00:01:41;102715.50;;;7.61;92.69
83100;BME280;72972;51.784;4.660;2024-01-30T00:04:23;102743.09;;;7.79;93.36
83100;BME280;72972;51.784;4.660;2024-01-30T00:07:05;102744.56;;;7.83;92.53
83100;BME280;72972;51.784;4.660;2024-01-30T00:09:34;102731.59;;;7.75;92.76
83100;BME280;72972;51.784;4.660;2024-01-30T00:12:17;102725.63;;;7.70;92.71
83100;BME280;72972;51.784;4.660;2024-01-30T00:15:10;102760.16;;;7.92;92.40
83100;BME280;72972;51.784;4.660;2024-01-30T00:17:53;102761.75;;;7.94;92.02
83100;BME280;72972;51.784;4.660;2024-01-30T00:20:25;102741.44;;;7.87;92.30
83100;BME280;72972;51.784;4.660;2024-01-30T00:23:05;102711.84;;;7.72;92.12
83100;BME280;72972;51.784;4.660;2024-01-30T00:25:41;102703.19;;;7.67;92.22
83100;BME280;72972;51.784;4.660;2024-01-30T00:28:15;102723.84;;;7.80;92.49
83100;BME280;72972;51.784;4.660;2024-01-30T00:30:59;102746.22;;;7.95;91.93
83100;BME280;72972;51.784;4.660;2024-01-30T00:33:53;102692.53;;;7.64;92.36
83100;BME280;72972;51.784;4.660;2024-01-30T00:36:39;102701.19;;;7.69;92.24
83100;BME280;72972;51.784;4.660;2024-01-30T00:39:43;102736.59;;;7.91;92.57
83100;BME280;72972;51.784;4.660;2024-01-30T00:42:23;102739.06;;;7.94;92.22
83100;BME280;72972;51.784;4.660;2024-01-30T00:45:17;102710.56;;;7.76;92.28
83100;BME280;72972;51.784;4.660;2024-01-30T00:48:14;102738.31;;;7.92;92.32
83100;BME280;72972;51.784;4.660;2024-01-30T00:51:00;102682.06;;;7.69;92.14
83100;BME280;72972;51.784;4.660;2024-01-30T00:53:35;102699.84;;;7.84;92.25
83100;BME280;72972;51.784;4.660;2024-01-30T00:56:13;102691.47;;;7.76;92.60
83100;BME280;72972;51.784;4.660;2024-01-30T00:58:49;102694.78;;;7.79;92.30
83100;BME280;72972;51.784;4.660;2024-01-30T01:01:37;102690.75;;;7.74;92.08
83100;BME280;72972;51.784;4.660;2024-01-30T01:04:10;102727.31;;;8.03;91.94
83100;BME280;72972;51.784;4.660;2024-01-30T01:06:51;102729.63;;;8.07;91.98
83100;BME280;72972;51.784;4.660;2024-01-30T01:09:43;102710.31;;;7.99;91.75
83100;BME280;72972;51.784;4.660;2024-01-30T01:12:21;102671.22;;;7.78;92.09
83100;BME280;72972;51.784;4.660;2024-01-30T01:14:52;102696.59;;;7.90;92.27
83100;BME280;72972;51.784;4.660;2024-01-30T01:17:24;102674.41;;;7.83;91.96
83100;BME280;72972;51.784;4.660;2024-01-30T01:20:13;102716.81;;;8.08;92.17
83100;BME280;72972;51.784;4.660;2024-01-30T01:25:46;102674.00;;;7.88;91.87
83100;BME280;72972;51.784;4.660;2024-01-30T01:28:24;102678.81;;;7.95;92.23
83100;BME280;72972;51.784;4.660;2024-01-30T01:30:55;102699.44;;;8.09;92.39
83100;BME280;72972;51.784;4.660;2024-01-30T01:33:54;102681.94;;;7.91;91.92
83100;BME280;72972;51.784;4.660;2024-01-30T01:36:34;102705.88;;;8.08;92.25
83100;BME280;72972;51.784;4.660;2024-01-30T01:39:08;102703.25;;;7.97;92.26
83100;BME280;72972;51.784;4.660;2024-01-30T01:41:52;102675.53;;;7.81;91.53
83100;BME280;72972;51.784;4.660;2024-01-30T01:44:39;102707.03;;;8.05;91.67
83100;BME280;72972;51.784;4.660;2024-01-30T01:47:07;102705.59;;;8.01;91.94
83100;BME280;72972;51.784;4.660;2024-01-30T01:49:49;102685.06;;;7.86;92.22
83100;BME280;72972;51.784;4.660;2024-01-30T01:52:33;102720.84;;;8.04;91.95
83100;BME280;72972;51.784;4.660;2024-01-30T01:55:20;102660.72;;;7.74;92.13
83100;BME280;72972;51.784;4.660;2024-01-30T01:58:07;102700.97;;;8.02;92.06
83100;BME280;72972;51.784;4.660;2024-01-30T02:04:02;102685.94;;;7.87;92.18
83100;BME280;72972;51.784;4.660;2024-01-30T02:06:56;102702.78;;;7.92;92.74
83100;BME280;72972;51.784;4.660;2024-01-30T02:09:34;102705.53;;;7.92;92.83
83100;BME280;72972;51.784;4.660;2024-01-30T02:12:08;102709.97;;;7.93;92.15
83100;BME280;72972;51.784;4.660;2024-01-30T02:14:50;102679.28;;;7.80;92.58
83100;BME280;72972;51.784;4.660;2024-01-30T02:17:46;102677.88;;;7.85;92.44
83100;BME280;72972;51.784;4.660;2024-01-30T02:20:15;102672.22;;;7.77;92.46
83100;BME280;72972;51.784;4.660;2024-01-30T02:22:53;102642.66;;;7.62;92.21
83100;BME280;72972;51.784;4.660;2024-01-30T02:25:42;102636.59;;;7.58;92.48
83100;BME280;72972;51.784;4.660;2024-01-30T02:28:22;102648.56;;;7.67;92.07
83100;BME280;72972;51.784;4.660;2024-01-30T02:30:53;102683.66;;;7.92;92.25
83100;BME280;72972;51.784;4.660;2024-01-30T02:33:27;102685.38;;;7.93;91.99
83100;BME280;72972;51.784;4.660;2024-01-30T02:36:14;102691.38;;;7.87;92.65
83100;BME280;72972;51.784;4.660;2024-01-30T02:38:51;102668.75;;;7.75;92.55
83100;BME280;72972;51.784;4.660;2024-01-30T02:41:29;102691.00;;;7.91;92.86
83100;BME280;72972;51.784;4.660;2024-01-30T02:44:32;102642.41;;;7.65;92.18
83100;BME280;72972;51.784;4.660;2024-01-30T02:47:20;102672.81;;;7.81;92.71
83100;BME280;72972;51.784;4.660;2024-01-30T02:49:48;102689.59;;;7.97;92.42
83100;BME280;72972;51.784;4.660;2024-01-30T02:52:25;102660.88;;;7.82;93.19
83100;BME280;72972;51.784;4.660;2024-01-30T02:55:17;102657.97;;;7.74;92.60
83100;BME280;72972;51.784;4.660;2024-01-30T02:57:44;102673.63;;;7.92;92.47
83100;BME280;72972;51.784;4.660;2024-01-30T03:00:30;102653.69;;;7.81;92.19
83100;BME280;72972;51.784;4.660;2024-01-30T03:02:59;102659.50;;;7.87;92.61
83100;BME280;72972;51.784;4.660;2024-01-30T03:05:27;102644.06;;;7.77;92.11
83100;BME280;72972;51.784;4.660;2024-01-30T03:07:54;102673.47;;;7.94;92.49
83100;BME280;72972;51.784;4.660;2024-01-30T03:10:30;102669.28;;;7.90;92.84
83100;BME280;72972;51.784;4.660;2024-01-30T03:12:58;102626.00;;;7.65;92.61
83100;BME280;72972;51.784;4.660;2024-01-30T03:15:24;102646.03;;;7.75;92.59
83100;BME280;72972;51.784;4.660;2024-01-30T03:18:07;102667.56;;;7.89;92.99
83100;BME280;72972;51.784;4.660;2024-01-30T03:20:44;102638.72;;;7.75;92.94
83100;BME280;72972;51.784;4.660;2024-01-30T03:23:18;102665.94;;;7.86;93.11
83100;BME280;72972;51.784;4.660;2024-01-30T03:25:47;102654.03;;;7.87;92.38
83100;BME280;72972;51.784;4.660;2024-01-30T03:28:33;102677.94;;;7.95;92.80
83100;BME280;72972;51.784;4.660;2024-01-30T03:31:02;102630.19;;;7.69;92.54
83100;BME280;72972;51.784;4.660;2024-01-30T03:33:37;102639.28;;;7.79;92.63
83100;BME280;72972;51.784;4.660;2024-01-30T03:36:07;102675.66;;;8.00;92.67
83100;BME280;72972;51.784;4.660;2024-01-30T03:38:55;102674.78;;;7.99;92.57
83100;BME280;72972;51.784;4.660;2024-01-30T03:41:24;102638.59;;;7.77;92.65
83100;BME280;72972;51.784;4.660;2024-01-30T03:44:24;102671.59;;;7.94;93.05
83100;BME280;72972;51.784;4.660;2024-01-30T03:46:51;102648.56;;;7.87;92.62
83100;BME280;72972;51.784;4.660;2024-01-30T03:50:01;102671.78;;;8.02;92.45
83100;BME280;72972;51.784;4.660;2024-01-30T03:52:48;102622.34;;;7.75;92.29
83100;BME280;72972;51.784;4.660;2024-01-30T03:55:20;102634.03;;;7.87;92.49
83100;BME280;72972;51.784;4.660;2024-01-30T03:57:49;102639.50;;;7.87;92.29
83100;BME280;72972;51.784;4.660;2024-01-30T04:00:18;102644.69;;;7.90;92.77
83100;BME280;72972;51.784;4.660;2024-01-30T04:02:53;102641.22;;;7.88;92.29
83100;BME280;72972;51.784;4.660;2024-01-30T04:05:47;102631.28;;;7.87;92.34
83100;BME280;72972;51.784;4.660;2024-01-30T04:08:28;102627.13;;;7.83;92.87
83100;BME280;72972;51.784;4.660;2024-01-30T04:10:56;102605.81;;;7.77;92.94
83100;BME280;72972;51.784;4.660;2024-01-30T04:13:28;102606.25;;;7.82;92.65
83100;BME280;72972;51.784;4.660;2024-01-30T04:16:00;102591.69;;;7.72;92.81
83100;BME280;72972;51.784;4.660;2024-01-30T04:18:29;102642.34;;;8.06;92.57
83100;BME280;72972;51.784;4.660;2024-01-30T04:21:11;102584.81;;;7.77;92.66
83100;BME280;72972;51.784;4.660;2024-01-30T04:23:54;102612.78;;;7.90;92.91
83100;BME280;72972;51.784;4.660;2024-01-30T04:26:29;102626.63;;;7.98;92.67
83100;BME280;72972;51.784;4.660;2024-01-30T04:29:01;102601.38;;;7.85;93.00
83100;BME280;72972;51.784;4.660;2024-01-30T04:31:32;102605.53;;;7.80;93.13
83100;BME280;72972;51.784;4.660;2024-01-30T04:34:10;102630.81;;;8.02;93.00
83100;BME280;72972;51.784;4.660;2024-01-30T04:37:07;102632.53;;;8.03;92.26
83100;BME280;72972;51.784;4.660;2024-01-30T04:39:39;102639.47;;;8.07;92.64
83100;BME280;72972;51.784;4.660;2024-01-30T04:42:13;102651.84;;;8.11;93.07
83100;BME280;72972;51.784;4.660;2024-01-30T04:45:19;102649.72;;;8.15;93.05
83100;BME280;72972;51.784;4.660;2024-01-30T04:47:51;102609.22;;;7.99;92.31
83100;BME280;72972;51.784;4.660;2024-01-30T04:50:19;102637.75;;;8.16;92.39
83100;BME280;72972;51.784;4.660;2024-01-30T04:53:02;102634.16;;;8.15;92.70
83100;BME280;72972;51.784;4.660;2024-01-30T04:55:38;102622.34;;;8.05;92.80
83100;BME280;72972;51.784;4.660;2024-01-30T04:58:18;102635.31;;;8.13;93.08
83100;BME280;72972;51.784;4.660;2024-01-30T05:00:50;102635.63;;;8.19;92.85
83100;BME280;72972;51.784;4.660;2024-01-30T05:03:19;102596.66;;;7.87;92.94
83100;BME280;72972;51.784;4.660;2024-01-30T05:05:56;102636.47;;;8.10;92.78
83100;BME280;72972;51.784;4.660;2024-01-30T05:08:28;102593.78;;;7.89;92.95
83100;BME280;72972;51.784;4.660;2024-01-30T05:11:09;102618.03;;;8.03;92.98
83100;BME280;72972;51.784;4.660;2024-01-30T05:13:36;102621.78;;;8.11;92.37
83100;BME280;72972;51.784;4.660;2024-01-30T05:16:05;102623.22;;;8.06;92.63
83100;BME280;72972;51.784;4.660;2024-01-30T05:18:36;102644.69;;;8.20;92.57
83100;BME280;72972;51.784;4.660;2024-01-30T05:21:17;102593.38;;;7.93;93.22
83100;BME280;72972;51.784;4.660;2024-01-30T05:23:48;102629.09;;;8.11;93.01
83100;BME280;72972;51.784;4.660;2024-01-30T05:26:17;102639.22;;;8.20;93.05
83100;BME280;72972;51.784;4.660;2024-01-30T05:28:51;102605.06;;;8.05;92.91
83100;BME280;72972;51.784;4.660;2024-01-30T05:31:26;102623.50;;;8.12;92.90
83100;BME280;72972;51.784;4.660;2024-01-30T05:34:07;102637.34;;;8.20;93.28
83100;BME280;72972;51.784;4.660;2024-01-30T05:36:39;102603.91;;;7.98;93.25
83100;BME280;72972;51.784;4.660;2024-01-30T05:39:14;102587.03;;;7.93;93.25
83100;BME280;72972;51.784;4.660;2024-01-30T05:41:49;102599.47;;;8.06;93.03
83100;BME280;72972;51.784;4.660;2024-01-30T05:44:23;102630.16;;;8.19;92.89
83100;BME280;72972;51.784;4.660;2024-01-30T05:47:03;102602.03;;;7.98;93.02
83100;BME280;72972;51.784;4.660;2024-01-30T05:49:29;102647.75;;;8.26;93.02
83100;BME280;72972;51.784;4.660;2024-01-30T05:52:04;102647.91;;;8.25;93.20
83100;BME280;72972;51.784;4.660;2024-01-30T05:54:50;102613.66;;;8.00;93.41
83100;BME280;72972;51.784;4.660;2024-01-30T05:57:19;102628.53;;;8.07;93.61
83100;BME280;72972;51.784;4.660;2024-01-30T05:59:59;102656.84;;;8.27;93.33
83100;BME280;72972;51.784;4.660;2024-01-30T06:02:28;102625.94;;;8.06;93.62
83100;BME280;72972;51.784;4.660;2024-01-30T06:05:04;102657.13;;;8.24;93.34
83100;BME280;72972;51.784;4.660;2024-01-30T06:07:35;102616.13;;;8.03;93.48
83100;BME280;72972;51.784;4.660;2024-01-30T06:10:08;102612.09;;;7.98;93.29
83100;BME280;72972;51.784;4.660;2024-01-30T06:12:40;102642.06;;;8.18;93.70
83100;BME280;72972;51.784;4.660;2024-01-30T06:15:25;102624.19;;;8.05;93.56
83100;BME280;72972;51.784;4.660;2024-01-30T06:19:09;102610.13;;;8.09;93.15
83100;BME280;72972;51.784;4.660;2024-01-30T06:25:01;102633.75;;;8.20;93.48
83100;BME280;72972;51.784;4.660;2024-01-30T06:28:09;102645.03;;;8.26;93.16
83100;BME280;72972;51.784;4.660;2024-01-30T06:30:55;102670.69;;;8.44;93.17
83100;BME280;72972;51.784;4.660;2024-01-30T06:34:06;102627.88;;;8.24;93.19
83100;BME280;72972;51.784;4.660;2024-01-30T06:36:44;102671.31;;;8.48;93.82
83100;BME280;72972;51.784;4.660;2024-01-30T06:39:38;102639.47;;;8.37;93.43
83100;BME280;72972;51.784;4.660;2024-01-30T06:42:09;102631.81;;;8.31;93.61
83100;BME280;72972;51.784;4.660;2024-01-30T06:44:41;102652.59;;;8.43;93.30
83100;BME280;72972;51.784;4.660;2024-01-30T06:47:15;102647.25;;;8.42;93.68
83100;BME280;72972;51.784;4.660;2024-01-30T06:49:41;102654.03;;;8.47;93.30
83100;BME280;72972;51.784;4.660;2024-01-30T06:52:12;102639.19;;;8.40;93.42
83100;BME280;72972;51.784;4.660;2024-01-30T06:54:38;102656.34;;;8.52;93.15
83100;BME280;72972;51.784;4.660;2024-01-30T06:57:05;102678.69;;;8.66;93.35
83100;BME280;72972;51.784;4.660;2024-01-30T07:00:13;102675.81;;;8.68;93.27
83100;BME280;72972;51.784;4.660;2024-01-30T07:03:14;102682.03;;;8.70;93.40
83100;BME280;72972;51.784;4.660;2024-01-30T07:05:43;102648.88;;;8.54;93.71
83100;BME280;72972;51.784;4.660;2024-01-30T07:08:19;102655.78;;;8.48;93.49
83100;BME280;72972;51.784;4.660;2024-01-30T07:10:48;102665.72;;;8.68;93.47
83100;BME280;72972;51.784;4.660;2024-01-30T07:13:40;102665.31;;;8.63;93.00
83100;BME280;72972;51.784;4.660;2024-01-30T07:16:09;102693.84;;;8.80;93.63
83100;BME280;72972;51.784;4.660;2024-01-30T07:19:02;102652.34;;;8.56;93.45
83100;BME280;72972;51.784;4.660;2024-01-30T07:24:48;102703.09;;;8.98;93.18
83100;BME280;72972;51.784;4.660;2024-01-30T07:27:26;102652.97;;;8.78;93.75
83100;BME280;72972;51.784;4.660;2024-01-30T07:30:01;102694.31;;;9.04;93.65
83100;BME280;72972;51.784;4.660;2024-01-30T07:32:34;102701.13;;;9.10;92.91
83100;BME280;72972;51.784;4.660;2024-01-30T07:35:03;102699.38;;;9.09;93.43
83100;BME280;72972;51.784;4.660;2024-01-30T07:37:35;102701.38;;;9.07;93.10
83100;BME280;72972;51.784;4.660;2024-01-30T07:40:05;102708.63;;;9.17;93.70
83100;BME280;72972;51.784;4.660;2024-01-30T07:45:37;102706.16;;;9.24;93.42
83100;BME280;72972;51.784;4.660;2024-01-30T07:48:18;102678.78;;;9.14;93.46
83100;BME280;72972;51.784;4.660;2024-01-30T07:50:49;102682.09;;;9.18;92.87
83100;BME280;72972;51.784;4.660;2024-01-30T07:53:18;102688.47;;;9.28;93.15
83100;BME280;72972;51.784;4.660;2024-01-30T07:56:01;102708.63;;;9.36;92.98
83100;BME280;72972;51.784;4.660;2024-01-30T07:58:31;102712.22;;;9.37;92.49
83100;BME280;72972;51.784;4.660;2024-01-30T08:01:02;102673.59;;;9.21;92.41
83100;BME280;72972;51.784;4.660;2024-01-30T08:03:39;102697.97;;;9.33;92.18
83100;BME280;72972;51.784;4.660;2024-01-30T08:06:14;102709.78;;;9.53;92.13
83100;BME280;72972;51.784;4.660;2024-01-30T08:08:51;102697.09;;;9.52;91.63
83100;BME280;72972;51.784;4.660;2024-01-30T08:11:54;102716.25;;;9.71;91.42
83100;BME280;72972;51.784;4.660;2024-01-30T08:14:26;102730.09;;;9.69;91.32
83100;BME280;72972;51.784;4.660;2024-01-30T08:17:04;102689.03;;;9.50;91.59
83100;BME280;72972;51.784;4.660;2024-01-30T08:20:01;102722.44;;;9.82;91.01
83100;BME280;72972;51.784;4.660;2024-01-30T08:23:07;102730.22;;;9.87;91.67
83100;BME280;72972;51.784;4.660;2024-01-30T08:25:40;102706.31;;;9.79;90.15
83100;BME280;72972;51.784;4.660;2024-01-30T08:28:20;102736.69;;;9.95;90.88
83100;BME280;72972;51.784;4.660;2024-01-30T08:30:48;102722.31;;;9.84;90.54
83100;BME280;72972;51.784;4.660;2024-01-30T08:33:20;102726.47;;;9.88;90.79
83100;BME280;72972;51.784;4.660;2024-01-30T08:35:52;102693.47;;;9.70;90.59
83100;BME280;72972;51.784;4.660;2024-01-30T08:38:30;102712.91;;;9.86;91.05
83100;BME280;72972;51.784;4.660;2024-01-30T08:40:59;102695.94;;;9.73;90.74
83100;BME280;72972;51.784;4.660;2024-01-30T08:43:28;102695.34;;;9.79;90.78
83100;BME280;72972;51.784;4.660;2024-01-30T08:46:00;102732.38;;;10.02;90.48
83100;BME280;72972;51.784;4.660;2024-01-30T08:48:29;102749.09;;;10.09;90.96
83100;BME280;72972;51.784;4.660;2024-01-30T08:50:58;102739.91;;;10.10;90.61
83100;BME280;72972;51.784;4.660;2024-01-30T08:53:33;102697.91;;;9.90;89.69
83100;BME280;72972;51.784;4.660;2024-01-30T08:56:09;102727.91;;;10.11;90.04
83100;BME280;72972;51.784;4.660;2024-01-30T08:59:04;102706.53;;;9.95;89.98
83100;BME280;72972;51.784;4.660;2024-01-30T09:01:36;102723.44;;;10.10;89.88
83100;BME280;72972;51.784;4.660;2024-01-30T09:04:05;102744.03;;;10.23;90.08
83100;BME280;72972;51.784;4.660;2024-01-30T09:06:34;102748.50;;;10.24;89.96
83100;BME280;72972;51.784;4.660;2024-01-30T09:09:07;102720.09;;;10.16;89.59
83100;BME280;72972;51.784;4.660;2024-01-30T09:11:39;102747.47;;;10.35;89.68
83100;BME280;72972;51.784;4.660;2024-01-30T09:14:09;102720.66;;;10.19;89.50
83100;BME280;72972;51.784;4.660;2024-01-30T09:16:41;102764.50;;;10.38;89.09
83100;BME280;72972;51.784;4.660;2024-01-30T09:19:09;102735.09;;;10.21;89.08
83100;BME280;72972;51.784;4.660;2024-01-30T09:21:49;102718.22;;;10.16;89.29
83100;BME280;72972;51.784;4.660;2024-01-30T09:24:43;102732.50;;;10.20;88.96
83100;BME280;72972;51.784;4.660;2024-01-30T09:27:30;102768.94;;;10.39;89.25
83100;BME280;72972;51.784;4.660;2024-01-30T09:30:21;102770.56;;;10.42;88.73
83100;BME280;72972;51.784;4.660;2024-01-30T09:32:50;102749.22;;;10.26;88.63
83100;BME280;72972;51.784;4.660;2024-01-30T09:35:20;102779.63;;;10.42;89.16
83100;BME280;72972;51.784;4.660;2024-01-30T09:37:51;102761.31;;;10.33;88.19
83100;BME280;72972;51.784;4.660;2024-01-30T09:40:49;102773.28;;;10.42;88.43
83100;BME280;72972;51.784;4.660;2024-01-30T09:44:08;102789.00;;;10.49;88.88
83100;BME280;72972;51.784;4.660;2024-01-30T09:46:51;102774.13;;;10.42;88.96
83100;BME280;72972;51.784;4.660;2024-01-30T09:49:25;102794.34;;;10.51;88.63
83100;BME280;72972;51.784;4.660;2024-01-30T09:51:53;102794.88;;;10.54;88.40
83100;BME280;72972;51.784;4.660;2024-01-30T09:54:38;102741.13;;;10.34;88.17
83100;BME280;72972;51.784;4.660;2024-01-30T09:57:07;102763.63;;;10.38;88.22
83100;BME280;72972;51.784;4.660;2024-01-30T09:59:58;102792.28;;;10.62;87.96
83100;BME280;72972;51.784;4.660;2024-01-30T10:02:30;102765.31;;;10.48;87.88
83100;BME280;72972;51.784;4.660;2024-01-30T10:05:34;102813.16;;;10.83;87.47
83100;BME280;72972;51.784;4.660;2024-01-30T10:08:07;102755.41;;;10.65;86.06
83100;BME280;72972;51.784;4.660;2024-01-30T10:10:51;102781.31;;;10.90;85.34
83100;BME280;72972;51.784;4.660;2024-01-30T10:13:28;102765.22;;;10.77;85.31
83100;BME280;72972;51.784;4.660;2024-01-30T10:16:17;102783.22;;;10.89;85.08
83100;BME280;72972;51.784;4.660;2024-01-30T10:18:50;102810.06;;;10.95;84.80
83100;BME280;72972;51.784;4.660;2024-01-30T10:21:27;102774.22;;;10.70;85.31
83100;BME280;72972;51.784;4.660;2024-01-30T10:24:07;102797.00;;;10.70;84.35
83100;BME280;72972;51.784;4.660;2024-01-30T10:26:58;102820.66;;;10.81;84.44
83100;BME280;72972;51.784;4.660;2024-01-30T10:29:38;102809.13;;;10.77;84.18
83100;BME280;72972;51.784;4.660;2024-01-30T10:32:13;102797.34;;;10.57;83.84
83100;BME280;72972;51.784;4.660;2024-01-30T10:34:52;102806.88;;;10.63;83.99
83100;BME280;72972;51.784;4.660;2024-01-30T10:37:22;102801.25;;;10.55;83.81
83100;BME280;72972;51.784;4.660;2024-01-30T10:39:53;102843.13;;;10.67;84.35
83100;BME280;72972;51.784;4.660;2024-01-30T10:42:29;102800.44;;;10.35;84.45
83100;BME280;72972;51.784;4.660;2024-01-30T10:47:36;102861.63;;;10.55;83.56
83100;BME280;72972;51.784;4.660;2024-01-30T10:50:23;102824.56;;;10.32;82.42
83100;BME280;72972;51.784;4.660;2024-01-30T10:53:09;102810.44;;;10.08;81.01
83100;BME280;72972;51.784;4.660;2024-01-30T10:55:47;102834.81;;;10.20;81.21
83100;BME280;72972;51.784;4.660;2024-01-30T10:58:20;102831.63;;;10.06;80.70
83100;BME280;72972;51.784;4.660;2024-01-30T11:00:51;102834.50;;;10.04;80.78
83100;BME280;72972;51.784;4.660;2024-01-30T11:03:32;102829.88;;;9.95;81.70
83100;BME280;72972;51.784;4.660;2024-01-30T11:06:05;102848.78;;;9.98;80.70
83100;BME280;72972;51.784;4.660;2024-01-30T11:08:39;102866.72;;;10.12;81.10
83100;BME280;72972;51.784;4.660;2024-01-30T11:11:09;102851.13;;;10.12;80.53
83100;BME280;72972;51.784;4.660;2024-01-30T11:13:52;102832.97;;;10.11;80.32
83100;BME280;72972;51.784;4.660;2024-01-30T11:16:21;102834.53;;;10.14;80.54
83100;BME280;72972;51.784;4.660;2024-01-30T11:18:53;102844.03;;;10.19;80.19
83100;BME280;72972;51.784;4.660;2024-01-30T11:21:29;102874.50;;;10.45;79.70
83100;BME280;72972;51.784;4.660;2024-01-30T11:24:14;102873.91;;;10.41;79.63
83100;BME280;72972;51.784;4.660;2024-01-30T11:26:49;102862.09;;;10.31;80.61
83100;BME280;72972;51.784;4.660;2024-01-30T11:29:20;102841.88;;;10.04;80.18
83100;BME280;72972;51.784;4.660;2024-01-30T11:32:01;102855.19;;;10.08;80.64
83100;BME280;72972;51.784;4.660;2024-01-30T11:34:41;102870.19;;;10.14;80.86
83100;BME280;72972;51.784;4.660;2024-01-30T11:37:12;102881.88;;;10.16;80.89
83100;BME280;72972;51.784;4.660;2024-01-30T11:39:48;102862.22;;;9.92;81.76
83100;BME280;72972;51.784;4.660;2024-01-30T11:42:19;102863.47;;;9.78;82.71
83100;BME280;72972;51.784;4.660;2024-01-30T11:44:47;102878.78;;;9.71;82.56
83100;BME280;72972;51.784;4.660;2024-01-30T11:47:19;102879.34;;;9.65;82.51
83100;BME280;72972;51.784;4.660;2024-01-30T11:49:47;102844.38;;;9.39;82.78
83100;BME280;72972;51.784;4.660;2024-01-30T11:52:22;102881.91;;;9.57;83.45
83100;BME280;72972;51.784;4.660;2024-01-30T11:54:56;102839.75;;;9.20;83.28
83100;BME280;72972;51.784;4.660;2024-01-30T11:57:27;102901.88;;;9.39;83.51
83100;BME280;72972;51.784;4.660;2024-01-30T11:59:58;102912.13;;;9.37;83.54
83100;BME280;72972;51.784;4.660;2024-01-30T12:02:27;102905.91;;;9.35;83.98
83100;BME280;72972;51.784;4.660;2024-01-30T12:05:32;102868.47;;;9.05;83.55
83100;BME280;72972;51.784;4.660;2024-01-30T12:08:26;102892.31;;;9.14;82.89
83100;BME280;72972;51.784;4.660;2024-01-30T12:10:59;102872.50;;;9.01;83.86
83100;BME280;72972;51.784;4.660;2024-01-30T12:16:36;102896.59;;;9.07;83.34
83100;BME280;72972;51.784;4.660;2024-01-30T12:19:10;102910.47;;;9.15;83.33
83100;BME280;72972;51.784;4.660;2024-01-30T12:24:44;102929.22;;;9.20;82.53
83100;BME280;72972;51.784;4.660;2024-01-30T12:27:30;102919.81;;;9.13;82.05
83100;BME280;72972;51.784;4.660;2024-01-30T12:30:38;102867.66;;;8.84;82.52
83100;BME280;72972;51.784;4.660;2024-01-30T12:33:22;102897.22;;;8.90;82.69
83100;BME280;72972;51.784;4.660;2024-01-30T12:35:50;102889.47;;;8.95;82.27
83100;BME280;72972;51.784;4.660;2024-01-30T12:38:24;102942.06;;;9.29;82.46
83100;BME280;72972;51.784;4.660;2024-01-30T12:41:15;102913.47;;;9.12;82.13
83100;BME280;72972;51.784;4.660;2024-01-30T12:44:14;102916.06;;;9.14;82.43
83100;BME280;72972;51.784;4.660;2024-01-30T12:46:40;102931.06;;;9.10;82.91
83100;BME280;72972;51.784;4.660;2024-01-30T12:49:20;102914.44;;;9.02;83.36
83100;BME280;72972;51.784;4.660;2024-01-30T12:52:21;102910.41;;;9.06;83.35
83100;BME280;72972;51.784;4.660;2024-01-30T12:55:14;102893.50;;;9.01;83.65
83100;BME280;72972;51.784;4.660;2024-01-30T12:57:57;102876.94;;;8.93;82.48
83100;BME280;72972;51.784;4.660;2024-01-30T13:00:39;102890.06;;;8.99;82.17
83100;BME280;72972;51.784;4.660;2024-01-30T13:03:31;102928.34;;;9.19;82.03
83100;BME280;72972;51.784;4.660;2024-01-30T13:06:03;102901.59;;;9.02;81.24
83100;BME280;72972;51.784;4.660;2024-01-30T13:08:57;102939.88;;;9.23;81.68
83100;BME280;72972;51.784;4.660;2024-01-30T13:11:31;102952.44;;;9.25;80.91
83100;BME280;72972;51.784;4.660;2024-01-30T13:14:08;102906.63;;;8.97;80.87
83100;BME280;72972;51.784;4.660;2024-01-30T13:16:34;102947.63;;;9.18;81.28
83100;BME280;72972;51.784;4.660;2024-01-30T13:19:00;102911.78;;;8.90;81.44
83100;BME280;72972;51.784;4.660;2024-01-30T13:21:36;102937.03;;;9.04;82.19
83100;BME280;72972;51.784;4.660;2024-01-30T13:24:03;102924.50;;;9.01;81.71
83100;BME280;72972;51.784;4.660;2024-01-30T13:29:27;102930.38;;;8.97;82.27
83100;BME280;72972;51.784;4.660;2024-01-30T13:31:56;102926.88;;;8.85;82.79
83100;BME280;72972;51.784;4.660;2024-01-30T13:34:47;102961.03;;;8.90;83.98
83100;BME280;72972;51.784;4.660;2024-01-30T13:37:27;102956.34;;;9.02;83.90
83100;BME280;72972;51.784;4.660;2024-01-30T13:39:59;102980.66;;;8.96;84.28
83100;BME280;72972;51.784;4.660;2024-01-30T13:45:33;102989.81;;;8.85;85.20
83100;BME280;72972;51.784;4.660;2024-01-30T13:51:15;102952.41;;;8.54;87.63
83100;BME280;72972;51.784;4.660;2024-01-30T13:53:50;102978.44;;;8.69;87.57
83100;BME280;72972;51.784;4.660;2024-01-30T13:56:22;102967.41;;;8.59;87.57
83100;BME280;72972;51.784;4.660;2024-01-30T13:58:55;102985.44;;;8.62;87.60
83100;BME280;72972;51.784;4.660;2024-01-30T14:01:27;102965.03;;;8.45;87.86
83100;BME280;72972;51.784;4.660;2024-01-30T14:10:31;102967.75;;;8.45;88.45
83100;BME280;72972;51.784;4.660;2024-01-30T14:16:02;102993.34;;;8.44;89.69
83100;BME280;72972;51.784;4.660;2024-01-30T14:19:00;102985.41;;;8.41;89.38
83100;BME280;72972;51.784;4.660;2024-01-30T14:25:13;103023.00;;;8.60;89.73
83100;BME280;72972;51.784;4.660;2024-01-30T14:31:34;103005.06;;;8.35;90.51
83100;BME280;72972;51.784;4.660;2024-01-30T14:37:31;103039.56;;;8.47;90.83
83100;BME280;72972;51.784;4.660;2024-01-30T14:40:27;103034.09;;;8.47;90.74
83100;BME280;72972;51.784;4.660;2024-01-30T14:43:16;103044.59;;;8.42;90.67
83100;BME280;72972;51.784;4.660;2024-01-30T14:46:26;103022.75;;;8.31;91.05
83100;BME280;72972;51.784;4.660;2024-01-30T14:48:58;103016.41;;;8.31;90.97
83100;BME280;72972;51.784;4.660;2024-01-30T14:51:53;103049.41;;;8.50;90.66